createdAt,value
2018-12-26T00:00:27.157Z,0.40
2018-12-26T00:02:55.879Z,0.40
2018-12-26T00:05:24.327Z,0.50
2018-12-26T00:07:53.150Z,0.50
2018-12-26T00:10:21.572Z,0.50
2018-12-26T00:12:49.999Z,0.40
2018-12-26T00:15:18.423Z,0.40
2018-12-26T00:17:46.837Z,0.40
2018-12-26T00:20:15.261Z,0.30
2018-12-26T00:22:43.673Z,0.20
2018-12-26T00:25:12.142Z,0.20
2018-12-26T00:30:08.805Z,0.20
2018-12-26T00:32:37.225Z,0.20
2018-12-26T00:35:05.932Z,0.20
2018-12-26T00:37:34.357Z,0.10
2018-12-26T00:40:02.800Z,0.10
2018-12-26T00:42:31.218Z,0.10
2018-12-26T00:44:59.652Z,0.10
2018-12-26T00:52:24.248Z,0.10
2018-12-26T00:54:52.676Z,0.00
2018-12-26T00:57:21.445Z,0.00
2018-12-26T00:59:50.127Z,0.10
2018-12-26T01:02:18.536Z,0.10
2018-12-26T01:04:47.033Z,0.10
2018-12-26T01:07:15.460Z,0.20
2018-12-26T01:09:43.914Z,0.20
2018-12-26T01:12:12.380Z,0.20
2018-12-26T01:14:40.811Z,0.20
2018-12-26T01:19:37.330Z,0.20
2018-12-26T01:22:05.744Z,0.20
2018-12-26T01:24:34.176Z,0.30
2018-12-26T01:27:02.588Z,0.30
2018-12-26T01:29:31.020Z,0.30
2018-12-26T01:31:59.448Z,0.30
2018-12-26T01:34:27.874Z,0.10
2018-12-26T01:36:56.290Z,0.10
2018-12-26T01:39:24.963Z,0.00
2018-12-26T01:41:53.388Z,0.10
2018-12-26T01:44:21.820Z,0.00
2018-12-26T01:46:50.232Z,0.00
2018-12-26T01:49:18.652Z,0.00
2018-12-26T01:51:47.080Z,0.00
2018-12-26T01:56:43.616Z,0.00
2018-12-26T01:59:12.357Z,0.00
2018-12-26T02:01:40.789Z,0.00
2018-12-26T02:04:09.216Z,0.10
2018-12-26T02:06:37.657Z,0.10
2018-12-26T02:09:07.117Z,0.00
2018-12-26T02:11:35.550Z,0.00
2018-12-26T02:14:03.984Z,0.00
2018-12-26T02:16:32.416Z,0.00
2018-12-26T02:19:01.119Z,0.00
2018-12-26T02:21:29.548Z,0.00
2018-12-26T02:23:57.969Z,0.00
2018-12-26T02:26:26.405Z,0.00
2018-12-26T02:28:54.825Z,0.00
2018-12-26T02:31:23.290Z,-0.10
2018-12-26T02:33:52.010Z,-0.10
2018-12-26T02:36:20.446Z,-0.20
2018-12-26T02:41:16.974Z,-0.20
2018-12-26T02:43:45.393Z,-0.30
2018-12-26T02:46:13.829Z,-0.30
2018-12-26T02:48:42.261Z,-0.30
2018-12-26T02:51:10.687Z,-0.30
2018-12-26T02:53:39.575Z,-0.20
2018-12-26T03:01:04.557Z,-0.20
2018-12-26T03:03:33.268Z,-0.20
2018-12-26T03:06:02.056Z,-0.10
2018-12-26T03:08:30.483Z,-0.10
2018-12-26T03:10:58.965Z,-0.20
2018-12-26T03:13:27.468Z,-0.20
2018-12-26T03:18:23.998Z,-0.20
2018-12-26T03:20:52.432Z,-0.30
2018-12-26T03:23:20.867Z,-0.30
2018-12-26T03:25:49.300Z,-0.40
2018-12-26T03:30:45.831Z,-0.50
2018-12-26T03:33:14.254Z,-0.60
2018-12-26T03:35:43.012Z,-0.50
2018-12-26T03:38:11.434Z,-0.50
2018-12-26T03:40:39.881Z,-0.50
2018-12-26T03:43:08.376Z,-0.50
2018-12-26T03:45:36.829Z,-0.50
2018-12-26T03:53:01.605Z,-0.40
2018-12-26T03:57:58.245Z,-0.40
2018-12-26T04:00:26.674Z,-0.40
2018-12-26T04:02:55.108Z,-0.60
2018-12-26T04:05:23.551Z,-0.60
2018-12-26T04:07:52.057Z,-0.70
2018-12-26T04:10:20.839Z,-0.70
2018-12-26T04:12:49.332Z,-0.80
2018-12-26T04:15:17.757Z,-0.70
2018-12-26T04:17:46.196Z,-0.70
2018-12-26T04:22:42.728Z,-0.70
2018-12-26T04:25:11.298Z,-0.60
2018-12-26T04:27:39.729Z,-0.60
2018-12-26T04:30:09.890Z,-0.60
2018-12-26T04:32:38.326Z,-0.50
2018-12-26T04:35:06.754Z,-0.40
2018-12-26T04:40:03.820Z,-0.50
2018-12-26T04:42:32.259Z,-0.50
2018-12-26T04:45:00.685Z,-0.50
2018-12-26T04:52:25.329Z,-0.60
2018-12-26T04:54:53.753Z,-0.60
2018-12-26T04:59:52.300Z,-0.70
2018-12-26T05:02:20.728Z,-0.80
2018-12-26T05:07:17.257Z,-0.80
2018-12-26T05:09:45.677Z,-0.70
2018-12-26T05:12:14.392Z,-0.80
2018-12-26T05:17:09.750Z,-0.70
2018-12-26T05:19:57.507Z,-0.60
2018-12-26T05:22:45.278Z,-0.60
2018-12-26T05:25:33.033Z,-0.70
2018-12-26T05:28:20.809Z,-0.70
2018-12-26T05:31:08.578Z,-0.70
2018-12-26T05:33:56.348Z,-0.70
2018-12-26T05:36:44.432Z,-0.70
2018-12-26T05:39:32.188Z,-0.70
2018-12-26T05:42:19.956Z,-0.90
2018-12-26T05:45:07.731Z,-0.90
2018-12-26T05:47:55.520Z,-1.00
2018-12-26T05:50:43.272Z,-1.00
2018-12-26T05:53:31.044Z,-0.90
2018-12-26T05:56:18.807Z,-0.90
2018-12-26T05:59:06.577Z,-0.90
2018-12-26T06:01:54.356Z,-0.80
2018-12-26T06:04:42.117Z,-0.80
2018-12-26T06:07:29.888Z,-0.70
2018-12-26T06:10:17.657Z,-0.80
2018-12-26T06:13:05.435Z,-0.80
2018-12-26T06:15:53.189Z,-0.90
2018-12-26T06:21:28.423Z,-1.10
2018-12-26T06:24:16.178Z,-1.20
2018-12-26T06:27:03.956Z,-1.20
2018-12-26T06:29:51.724Z,-1.30
2018-12-26T06:32:39.595Z,-1.30
2018-12-26T06:38:08.114Z,-1.30
2018-12-26T06:40:49.037Z,-1.30
2018-12-26T06:43:30.057Z,-1.40
2018-12-26T06:46:10.985Z,-1.40
2018-12-26T06:48:51.870Z,-1.40
2018-12-26T06:51:32.109Z,-1.50
2018-12-26T06:54:12.926Z,-1.60
2018-12-26T06:56:53.489Z,-1.60
2018-12-26T07:02:46.586Z,-1.80
2018-12-26T07:05:27.061Z,-1.70
2018-12-26T07:08:07.635Z,-1.80
2018-12-26T07:10:48.280Z,-1.80
2018-12-26T07:13:28.848Z,-1.80
2018-12-26T07:16:09.733Z,-1.80
2018-12-26T07:18:50.508Z,-1.90
2018-12-26T07:21:31.448Z,-1.80
2018-12-26T07:24:12.197Z,-1.80
2018-12-26T07:26:52.901Z,-1.80
2018-12-26T07:29:33.801Z,-1.80
2018-12-26T07:32:14.885Z,-2.00
2018-12-26T07:34:55.732Z,-2.10
2018-12-26T07:37:36.689Z,-2.00
2018-12-26T07:40:17.197Z,-2.10
2018-12-26T07:42:57.848Z,-2.10
2018-12-26T07:45:38.715Z,-2.00
2018-12-26T07:48:19.741Z,-2.00
2018-12-26T07:51:00.334Z,-2.00
2018-12-26T07:53:40.850Z,-2.00
2018-12-26T07:56:21.585Z,-2.00
2018-12-26T08:02:00.513Z,-2.00
2018-12-26T08:04:40.980Z,-2.00
2018-12-26T08:07:21.653Z,-2.00
2018-12-26T08:10:02.953Z,-2.00
2018-12-26T08:12:43.585Z,-1.70
2018-12-26T08:15:24.229Z,-1.90
2018-12-26T08:18:04.877Z,-1.90
2018-12-26T08:20:45.317Z,-1.90
2018-12-26T08:23:26.012Z,-2.00
2018-12-26T08:26:06.622Z,-2.00
2018-12-26T08:28:47.560Z,-1.90
2018-12-26T08:31:28.649Z,-1.70
2018-12-26T08:34:09.672Z,-1.70
2018-12-26T08:36:49.925Z,-1.50
2018-12-26T08:39:30.720Z,-1.40
2018-12-26T08:42:11.289Z,-1.30
2018-12-26T08:44:51.791Z,-1.30
2018-12-26T08:47:32.738Z,-1.50
2018-12-26T08:50:13.682Z,-1.40
2018-12-26T08:52:55.297Z,-1.50
2018-12-26T08:55:36.363Z,-1.50
2018-12-26T08:58:19.046Z,-1.40
2018-12-26T09:00:59.719Z,-1.50
2018-12-26T09:03:40.629Z,-1.40
2018-12-26T09:06:21.309Z,-1.40
2018-12-26T09:09:01.914Z,-1.40
2018-12-26T09:11:42.356Z,-1.30
2018-12-26T09:14:22.900Z,-1.30
2018-12-26T09:17:03.685Z,-1.20
2018-12-26T09:19:44.415Z,-1.30
2018-12-26T09:22:24.853Z,-1.20
2018-12-26T09:25:05.453Z,-1.30
2018-12-26T09:27:46.249Z,-1.30
2018-12-26T09:30:27.125Z,-1.20
2018-12-26T09:33:07.694Z,-1.20
2018-12-26T09:35:48.150Z,-1.20
2018-12-26T09:38:28.853Z,-1.20
2018-12-26T09:41:09.464Z,-1.10
2018-12-26T09:43:50.109Z,-1.00
2018-12-26T09:46:30.461Z,-0.90
2018-12-26T09:49:11.020Z,-0.90
2018-12-26T09:51:51.400Z,-1.10
2018-12-26T09:54:31.865Z,-1.20
2018-12-26T09:57:12.665Z,-1.10
2018-12-26T09:59:52.986Z,-1.00
2018-12-26T10:02:33.726Z,-0.80
2018-12-26T10:05:14.253Z,-0.70
2018-12-26T10:07:55.297Z,-0.70
2018-12-26T10:10:36.025Z,-0.50
2018-12-26T10:13:16.573Z,-0.50
2018-12-26T10:19:10.396Z,-0.60
2018-12-26T10:21:50.878Z,-0.80
2018-12-26T10:24:31.394Z,-0.80
2018-12-26T10:27:11.981Z,-0.70
2018-12-26T10:29:52.585Z,-0.80
2018-12-26T10:32:33.033Z,-0.90
2018-12-26T10:35:13.478Z,-0.80
2018-12-26T10:37:54.465Z,-0.70
2018-12-26T10:40:34.937Z,-0.70
2018-12-26T10:43:15.777Z,-0.60
2018-12-26T10:45:56.881Z,-0.50
2018-12-26T10:48:37.991Z,-0.50
2018-12-26T10:51:18.974Z,-0.50
2018-12-26T10:53:59.530Z,-0.40
2018-12-26T10:56:40.186Z,-0.40
2018-12-26T11:02:19.417Z,-0.70
2018-12-26T11:04:59.957Z,-0.80
2018-12-26T11:10:53.633Z,-0.90
2018-12-26T11:13:34.148Z,-0.90
2018-12-26T11:16:15.101Z,-0.90
2018-12-26T11:18:55.878Z,-0.70
2018-12-26T11:24:17.187Z,-0.10
2018-12-26T11:26:58.153Z,-0.60
2018-12-26T11:29:38.435Z,-0.60
2018-12-26T11:32:19.009Z,-0.70
2018-12-26T11:34:59.769Z,-0.80
2018-12-26T11:37:40.513Z,-0.80
2018-12-26T11:40:21.344Z,-0.80
2018-12-26T11:43:01.913Z,-1.00
2018-12-26T11:45:42.694Z,-1.00
2018-12-26T11:48:23.161Z,-0.80
2018-12-26T11:51:03.876Z,-0.80
2018-12-26T11:53:44.773Z,-0.60
2018-12-26T11:56:25.655Z,-0.50
2018-12-26T11:59:06.074Z,-0.30
2018-12-26T12:01:46.705Z,-0.30
2018-12-26T12:04:27.373Z,-0.30
2018-12-26T12:07:07.732Z,-0.30
2018-12-26T12:09:48.661Z,-0.10
2018-12-26T12:12:29.656Z,-0.20
2018-12-26T12:15:10.425Z,-0.10
2018-12-26T12:17:51.034Z,0.00
2018-12-26T12:20:31.477Z,0.10
2018-12-26T12:23:11.775Z,0.10
2018-12-26T12:28:51.098Z,0.20
2018-12-26T12:31:31.674Z,0.10
2018-12-26T12:34:12.518Z,0.10
2018-12-26T12:36:53.058Z,0.10
2018-12-26T12:39:34.013Z,0.30
2018-12-26T12:42:14.853Z,0.30
2018-12-26T12:44:55.681Z,0.40
2018-12-26T12:47:36.661Z,0.50
2018-12-26T12:50:17.541Z,0.50
2018-12-26T12:52:58.477Z,0.60
2018-12-26T12:55:39.189Z,0.70
2018-12-26T12:58:20.389Z,0.70
2018-12-26T13:01:01.517Z,0.60
2018-12-26T13:03:46.547Z,0.50
2018-12-26T13:06:24.905Z,0.50
2018-12-26T13:09:05.450Z,0.50
2018-12-26T13:11:46.504Z,0.70
2018-12-26T13:14:26.838Z,0.70
2018-12-26T13:17:07.589Z,0.60
2018-12-26T13:19:48.522Z,0.50
2018-12-26T13:22:29.496Z,0.50
2018-12-26T13:25:10.327Z,0.50
2018-12-26T13:27:51.037Z,0.40
2018-12-26T13:30:31.681Z,0.40
2018-12-26T13:33:12.342Z,0.40
2018-12-26T13:35:53.127Z,0.40
2018-12-26T13:38:33.521Z,0.30
2018-12-26T13:41:14.361Z,0.30
2018-12-26T13:43:55.550Z,0.30
2018-12-26T13:46:36.652Z,0.20
2018-12-26T13:49:17.621Z,0.20
2018-12-26T13:51:58.508Z,0.10
2018-12-26T13:54:39.280Z,0.10
2018-12-26T13:57:20.044Z,0.10
2018-12-26T14:00:02.565Z,0.00
2018-12-26T14:02:43.798Z,0.10
2018-12-26T14:05:24.493Z,0.00
2018-12-26T14:08:05.057Z,0.10
2018-12-26T14:10:45.697Z,0.10
2018-12-26T14:13:26.131Z,0.20
2018-12-26T14:16:06.556Z,0.20
2018-12-26T14:18:47.504Z,0.20
2018-12-26T14:21:28.371Z,0.10
2018-12-26T14:24:09.269Z,0.10
2018-12-26T14:26:50.173Z,0.10
2018-12-26T14:29:30.613Z,0.00
2018-12-26T14:32:11.488Z,-0.10
2018-12-26T14:34:52.246Z,0.10
2018-12-26T14:37:33.185Z,0.10
2018-12-26T14:40:13.689Z,0.10
2018-12-26T14:42:55.713Z,-0.10
2018-12-26T14:45:36.048Z,-0.10
2018-12-26T14:48:16.593Z,-0.10
2018-12-26T14:50:57.838Z,-0.10
2018-12-26T14:53:38.970Z,-0.30
2018-12-26T14:56:19.749Z,-0.40
2018-12-26T14:59:00.390Z,-0.40
2018-12-26T15:01:40.875Z,-0.50
2018-12-26T15:04:21.637Z,-0.50
2018-12-26T15:07:02.115Z,-0.50
2018-12-26T15:09:42.641Z,-0.50
2018-12-26T15:12:23.570Z,-0.70
2018-12-26T15:15:04.513Z,-1.10
2018-12-26T15:17:45.471Z,-1.30
2018-12-26T15:20:26.446Z,-1.40
2018-12-26T15:23:07.109Z,-1.40
2018-12-26T15:25:47.913Z,-1.50
2018-12-26T15:31:40.763Z,-1.60
2018-12-26T15:34:21.740Z,-1.60
2018-12-26T15:37:02.610Z,-1.60
2018-12-26T15:39:43.490Z,-1.70
2018-12-26T15:42:24.205Z,-1.70
2018-12-26T15:45:05.226Z,-1.70
2018-12-26T15:47:45.982Z,-1.70
2018-12-26T15:50:27.065Z,-1.70
2018-12-26T15:53:08.015Z,-1.70
2018-12-26T15:55:49.182Z,-1.70
2018-12-26T15:58:30.072Z,-1.80
2018-12-26T16:01:10.729Z,-1.90
2018-12-26T16:03:51.558Z,-1.80
2018-12-26T16:06:32.135Z,-1.80
2018-12-26T16:09:12.517Z,-1.80
2018-12-26T16:11:53.549Z,-1.80
2018-12-26T16:14:34.605Z,-1.90
2018-12-26T16:17:15.197Z,-1.90
2018-12-26T16:19:56.301Z,-1.90
2018-12-26T16:22:37.140Z,-1.90
2018-12-26T16:25:17.547Z,-1.80
2018-12-26T16:27:58.829Z,-1.70
2018-12-26T16:30:46.178Z,-1.90
2018-12-26T16:33:21.502Z,-1.90
2018-12-26T16:36:02.548Z,-1.90
2018-12-26T16:38:43.496Z,-1.90
2018-12-26T16:41:24.461Z,-1.80
2018-12-26T16:44:05.121Z,-1.90
2018-12-26T16:46:46.182Z,-1.90
2018-12-26T16:49:27.300Z,-1.90
2018-12-26T16:52:07.565Z,-1.90
2018-12-26T16:54:48.153Z,-1.80
2018-12-26T16:57:29.057Z,-1.90
2018-12-26T17:00:09.853Z,-1.80
2018-12-26T17:02:50.757Z,-1.70
2018-12-26T17:05:31.641Z,-1.60
2018-12-26T17:08:12.229Z,-1.50
2018-12-26T17:10:52.659Z,-1.60
2018-12-26T17:13:33.725Z,-1.50
2018-12-26T17:16:14.260Z,-1.40
2018-12-26T17:18:42.685Z,-1.40
2018-12-26T17:21:11.145Z,-1.40
2018-12-26T17:23:39.585Z,-1.40
2018-12-26T17:31:04.566Z,-1.50
2018-12-26T17:36:01.533Z,-1.50
2018-12-26T17:38:29.977Z,-1.50
2018-12-26T17:40:58.405Z,-1.50
2018-12-26T17:43:26.837Z,-1.50
2018-12-26T17:45:55.260Z,-1.50
2018-12-26T17:48:23.695Z,-1.40
2018-12-26T17:50:52.185Z,-1.40
2018-12-26T17:53:26.315Z,-1.40
2018-12-26T17:56:00.356Z,-1.50
2018-12-26T17:58:32.134Z,-1.50
2018-12-26T18:01:13.220Z,-1.40
2018-12-26T18:08:38.241Z,-1.30
2018-12-26T18:13:34.785Z,-1.30
2018-12-26T18:16:03.223Z,-1.30
2018-12-26T18:21:00.092Z,-1.20
2018-12-26T18:23:28.529Z,-1.20
2018-12-26T18:25:56.961Z,-1.20
2018-12-26T18:28:25.463Z,-1.10
2018-12-26T18:30:53.894Z,-1.20
2018-12-26T18:33:22.340Z,-1.20
2018-12-26T18:38:19.195Z,-1.30
2018-12-26T18:40:47.617Z,-1.30
2018-12-26T18:43:16.074Z,-1.30
2018-12-26T18:45:44.497Z,-1.40
2018-12-26T18:48:12.933Z,-1.40
2018-12-26T18:50:41.356Z,-1.50
2018-12-26T19:00:34.068Z,-1.70
2018-12-26T19:03:02.793Z,-1.60
2018-12-26T19:05:31.229Z,-1.60
2018-12-26T19:07:59.652Z,-1.60
2018-12-26T19:10:28.080Z,-1.60
2018-12-26T19:12:56.500Z,-1.60
2018-12-26T19:15:25.289Z,-1.50
2018-12-26T19:22:49.898Z,-1.50
2018-12-26T19:25:18.326Z,-1.40
2018-12-26T19:30:14.852Z,-1.50
2018-12-26T19:32:43.282Z,-1.50
2018-12-26T19:35:12.897Z,-1.50
2018-12-26T19:37:41.320Z,-1.50
2018-12-26T19:40:29.350Z,-1.60
2018-12-26T19:42:57.772Z,-1.60
2018-12-26T19:45:26.209Z,-1.50
2018-12-26T19:47:54.675Z,-1.60
2018-12-26T19:50:23.173Z,-1.50
2018-12-26T19:52:51.598Z,-1.50
2018-12-26T19:55:20.038Z,-1.50
2018-12-26T19:57:48.467Z,-1.50
2018-12-26T20:00:16.901Z,-1.50
2018-12-26T20:02:45.400Z,-1.50
2018-12-26T20:05:13.877Z,-1.50
2018-12-26T20:07:42.292Z,-1.50
2018-12-26T20:10:11.003Z,-1.50
2018-12-26T20:12:39.425Z,-1.50
2018-12-26T20:17:35.955Z,-1.50
2018-12-26T20:20:06.324Z,-1.50
2018-12-26T20:22:34.831Z,-1.50
2018-12-26T20:25:03.401Z,-1.50
2018-12-26T20:27:31.823Z,-1.50
2018-12-26T20:32:28.713Z,-1.60
2018-12-26T20:34:57.476Z,-1.60
2018-12-26T20:37:25.959Z,-1.60
2018-12-26T20:39:54.397Z,-1.60
2018-12-26T20:44:51.226Z,-1.50
2018-12-26T20:52:16.191Z,-1.50
2018-12-26T20:54:44.650Z,-1.60
2018-12-26T20:57:13.086Z,-1.60
2018-12-26T20:59:41.538Z,-1.60
2018-12-26T21:02:10.118Z,-1.70
2018-12-26T21:04:38.872Z,-1.60
2018-12-26T21:07:07.318Z,-1.60
2018-12-26T21:12:03.892Z,-1.80
2018-12-26T21:14:32.309Z,-1.80
2018-12-26T21:17:00.747Z,-1.80
2018-12-26T21:21:57.361Z,-1.80
2018-12-26T21:24:25.784Z,-1.90
2018-12-26T21:26:54.293Z,-1.80
2018-12-26T21:29:22.755Z,-1.80
2018-12-26T21:31:51.233Z,-1.90
2018-12-26T21:34:19.652Z,-1.80
2018-12-26T21:36:48.193Z,-1.90
2018-12-26T21:39:16.613Z,-1.90
2018-12-26T21:41:45.041Z,-2.00
2018-12-26T21:44:13.515Z,-2.00
2018-12-26T21:49:10.370Z,-2.00
2018-12-26T21:51:38.805Z,-1.90
2018-12-26T21:59:03.708Z,-2.00
2018-12-26T22:01:32.494Z,-2.10
2018-12-26T22:04:01.165Z,-2.10
2018-12-26T22:06:29.594Z,-2.10
2018-12-26T22:08:58.024Z,-2.10
2018-12-26T22:11:26.525Z,-2.20
2018-12-26T22:13:55.024Z,-2.20
2018-12-26T22:16:23.777Z,-2.20
2018-12-26T22:18:52.193Z,-2.20
2018-12-26T22:21:20.616Z,-2.20
2018-12-26T22:23:49.067Z,-2.20
2018-12-26T22:31:14.317Z,-2.20
2018-12-26T22:33:42.753Z,-2.20
2018-12-26T22:36:11.186Z,-2.20
2018-12-26T22:38:39.616Z,-2.20
2018-12-26T22:41:08.038Z,-2.20
2018-12-26T22:43:36.464Z,-2.20
2018-12-26T23:00:53.781Z,-2.80
2018-12-26T23:03:22.200Z,-2.70
2018-12-26T23:05:50.627Z,-2.70
2018-12-26T23:08:19.052Z,-2.70
2018-12-26T23:15:43.653Z,-2.40
2018-12-26T23:18:31.693Z,-2.40
2018-12-26T23:24:07.212Z,-2.50
2018-12-26T23:26:55.011Z,-2.50
2018-12-26T23:29:42.781Z,-2.50
2018-12-26T23:32:30.572Z,-2.50
2018-12-26T23:35:18.337Z,-2.30
2018-12-26T23:37:59.307Z,-2.60
2018-12-26T23:40:39.861Z,-2.60
2018-12-26T23:43:21.076Z,-2.60
2018-12-26T23:46:02.017Z,-2.70
2018-12-26T23:48:42.687Z,-2.60
2018-12-26T23:51:23.978Z,-2.60
2018-12-26T23:54:04.703Z,-2.50
2018-12-26T23:56:45.458Z,-2.40
2018-12-26T23:59:26.386Z,-2.50
